sensor_id;sensor_type;location;lat;lon;timestamp;P1;durP1;ratioP1;P2;durP2;ratioP2
27632;SDS011;15046;50.930;13.334;2022-07-30T00:00:04;8.30;;;5.93;;
27632;SDS011;15046;50.930;13.334;2022-07-30T00:02:32;8.00;;;5.93;;
27632;SDS011;15046;50.930;13.334;2022-07-30T00:04:58;7.60;;;6.20;;
27632;SDS011;15046;50.930;13.334;2022-07-30T00:07:24;8.43;;;6.55;;
27632;SDS011;15046;50.930;13.334;2022-07-30T00:09:49;8.45;;;6.93;;
27632;SDS011;15046;50.930;13.334;2022-07-30T00:12:15;9.40;;;6.80;;
27632;SDS011;15046;50.930;13.334;2022-07-30T00:14:41;8.77;;;6.40;;
27632;SDS011;15046;50.930;13.334;2022-07-30T00:17:07;8.32;;;6.82;;
27632;SDS011;15046;50.930;13.334;2022-07-30T00:19:33;7.45;;;5.97;;
27632;SDS011;15046;50.930;13.334;2022-07-30T00:21:59;8.63;;;6.53;;
27632;SDS011;15046;50.930;13.334;2022-07-30T00:24:25;9.38;;;6.82;;
27632;SDS011;15046;50.930;13.334;2022-07-30T00:26:51;8.32;;;6.55;;
27632;SDS011;15046;50.930;13.334;2022-07-30T00:29:17;10.10;;;6.50;;
27632;SDS011;15046;50.930;13.334;2022-07-30T00:31:42;9.02;;;6.70;;
27632;SDS011;15046;50.930;13.334;2022-07-30T00:34:08;8.02;;;7.00;;
27632;SDS011;15046;50.930;13.334;2022-07-30T00:36:34;8.68;;;6.80;;
27632;SDS011;15046;50.930;13.334;2022-07-30T00:39:00;9.57;;;6.63;;
27632;SDS011;15046;50.930;13.334;2022-07-30T00:41:25;8.20;;;6.72;;
27632;SDS011;15046;50.930;13.334;2022-07-30T00:43:51;8.57;;;6.38;;
27632;SDS011;15046;50.930;13.334;2022-07-30T00:46:17;8.48;;;6.32;;
27632;SDS011;15046;50.930;13.334;2022-07-30T00:48:43;10.73;;;6.75;;
27632;SDS011;15046;50.930;13.334;2022-07-30T00:51:10;7.93;;;6.85;;
27632;SDS011;15046;50.930;13.334;2022-07-30T00:53:36;8.93;;;7.63;;
27632;SDS011;15046;50.930;13.334;2022-07-30T00:56:02;9.30;;;7.03;;
27632;SDS011;15046;50.930;13.334;2022-07-30T00:58:28;11.20;;;7.68;;
27632;SDS011;15046;50.930;13.334;2022-07-30T01:00:55;9.35;;;7.65;;
27632;SDS011;15046;50.930;13.334;2022-07-30T01:03:20;11.68;;;8.18;;
27632;SDS011;15046;50.930;13.334;2022-07-30T01:05:46;10.43;;;7.18;;
27632;SDS011;15046;50.930;13.334;2022-07-30T01:08:12;9.23;;;7.22;;
27632;SDS011;15046;50.930;13.334;2022-07-30T01:10:39;9.73;;;7.72;;
27632;SDS011;15046;50.930;13.334;2022-07-30T01:13:04;7.95;;;6.80;;
27632;SDS011;15046;50.930;13.334;2022-07-30T01:15:32;8.50;;;7.20;;
27632;SDS011;15046;50.930;13.334;2022-07-30T01:17:59;9.10;;;8.13;;
27632;SDS011;15046;50.930;13.334;2022-07-30T01:23:00;11.88;;;7.90;;
27632;SDS011;15046;50.930;13.334;2022-07-30T01:28:30;10.25;;;8.15;;
27632;SDS011;15046;50.930;13.334;2022-07-30T01:30:59;13.45;;;8.63;;
27632;SDS011;15046;50.930;13.334;2022-07-30T01:33:27;13.13;;;8.77;;
27632;SDS011;15046;50.930;13.334;2022-07-30T01:35:55;10.35;;;9.20;;
27632;SDS011;15046;50.930;13.334;2022-07-30T01:38:24;10.90;;;9.80;;
27632;SDS011;15046;50.930;13.334;2022-07-30T01:40:52;11.18;;;8.98;;
27632;SDS011;15046;50.930;13.334;2022-07-30T01:43:19;11.65;;;9.63;;
27632;SDS011;15046;50.930;13.334;2022-07-30T01:45:47;11.77;;;9.88;;
27632;SDS011;15046;50.930;13.334;2022-07-30T01:48:14;10.60;;;9.35;;
27632;SDS011;15046;50.930;13.334;2022-07-30T01:50:44;12.17;;;10.37;;
27632;SDS011;15046;50.930;13.334;2022-07-30T01:53:15;13.27;;;9.90;;
27632;SDS011;15046;50.930;13.334;2022-07-30T01:55:43;12.55;;;10.68;;
27632;SDS011;15046;50.930;13.334;2022-07-30T01:58:11;17.58;;;12.07;;
27632;SDS011;15046;50.930;13.334;2022-07-30T02:00:38;18.40;;;12.63;;
27632;SDS011;15046;50.930;13.334;2022-07-30T02:03:06;14.30;;;12.80;;
27632;SDS011;15046;50.930;13.334;2022-07-30T02:05:35;16.85;;;13.35;;
27632;SDS011;15046;50.930;13.334;2022-07-30T02:08:05;15.65;;;13.15;;
27632;SDS011;15046;50.930;13.334;2022-07-30T02:13:09;15.90;;;14.23;;
27632;SDS011;15046;50.930;13.334;2022-07-30T02:15:40;18.88;;;15.32;;
27632;SDS011;15046;50.930;13.334;2022-07-30T02:18:22;17.52;;;14.50;;
27632;SDS011;15046;50.930;13.334;2022-07-30T02:21:02;18.38;;;15.40;;
27632;SDS011;15046;50.930;13.334;2022-07-30T02:23:31;17.55;;;15.65;;
27632;SDS011;15046;50.930;13.334;2022-07-30T02:28:28;18.05;;;15.73;;
27632;SDS011;15046;50.930;13.334;2022-07-30T02:30:57;19.42;;;16.17;;
27632;SDS011;15046;50.930;13.334;2022-07-30T02:33:32;19.00;;;15.35;;
27632;SDS011;15046;50.930;13.334;2022-07-30T02:36:01;17.42;;;15.60;;
27632;SDS011;15046;50.930;13.334;2022-07-30T02:38:28;19.65;;;16.83;;
27632;SDS011;15046;50.930;13.334;2022-07-30T02:40:56;18.50;;;16.40;;
27632;SDS011;15046;50.930;13.334;2022-07-30T02:43:25;18.50;;;16.30;;
27632;SDS011;15046;50.930;13.334;2022-07-30T02:45:53;18.33;;;15.68;;
27632;SDS011;15046;50.930;13.334;2022-07-30T02:48:21;18.00;;;15.80;;
27632;SDS011;15046;50.930;13.334;2022-07-30T02:50:51;19.15;;;16.10;;
27632;SDS011;15046;50.930;13.334;2022-07-30T02:53:18;18.58;;;15.63;;
27632;SDS011;15046;50.930;13.334;2022-07-30T02:55:45;20.48;;;17.88;;
27632;SDS011;15046;50.930;13.334;2022-07-30T02:58:14;18.45;;;15.98;;
27632;SDS011;15046;50.930;13.334;2022-07-30T03:00:44;19.58;;;16.95;;
27632;SDS011;15046;50.930;13.334;2022-07-30T03:03:10;16.98;;;14.80;;
27632;SDS011;15046;50.930;13.334;2022-07-30T03:05:37;18.52;;;16.52;;
27632;SDS011;15046;50.930;13.334;2022-07-30T03:08:05;19.90;;;17.23;;
27632;SDS011;15046;50.930;13.334;2022-07-30T03:10:32;19.38;;;17.33;;
27632;SDS011;15046;50.930;13.334;2022-07-30T03:13:00;19.40;;;17.45;;
27632;SDS011;15046;50.930;13.334;2022-07-30T03:15:31;19.75;;;17.65;;
27632;SDS011;15046;50.930;13.334;2022-07-30T03:18:00;21.17;;;17.70;;
27632;SDS011;15046;50.930;13.334;2022-07-30T03:20:28;17.70;;;15.63;;
27632;SDS011;15046;50.930;13.334;2022-07-30T03:22:57;19.25;;;17.35;;
27632;SDS011;15046;50.930;13.334;2022-07-30T03:25:27;19.70;;;17.67;;
27632;SDS011;15046;50.930;13.334;2022-07-30T03:27:55;17.05;;;14.55;;
27632;SDS011;15046;50.930;13.334;2022-07-30T03:30:23;17.13;;;15.43;;
27632;SDS011;15046;50.930;13.334;2022-07-30T03:32:50;17.02;;;15.25;;
27632;SDS011;15046;50.930;13.334;2022-07-30T03:35:18;18.00;;;16.17;;
27632;SDS011;15046;50.930;13.334;2022-07-30T03:37:54;21.13;;;16.88;;
27632;SDS011;15046;50.930;13.334;2022-07-30T03:40:21;19.23;;;17.17;;
27632;SDS011;15046;50.930;13.334;2022-07-30T03:42:48;20.88;;;18.30;;
27632;SDS011;15046;50.930;13.334;2022-07-30T03:45:14;19.52;;;17.45;;
27632;SDS011;15046;50.930;13.334;2022-07-30T03:47:52;19.00;;;17.02;;
27632;SDS011;15046;50.930;13.334;2022-07-30T03:50:20;22.13;;;18.50;;
27632;SDS011;15046;50.930;13.334;2022-07-30T03:52:46;22.13;;;19.77;;
27632;SDS011;15046;50.930;13.334;2022-07-30T03:55:13;21.42;;;19.13;;
27632;SDS011;15046;50.930;13.334;2022-07-30T03:57:39;22.92;;;19.50;;
27632;SDS011;15046;50.930;13.334;2022-07-30T04:00:06;24.23;;;20.58;;
27632;SDS011;15046;50.930;13.334;2022-07-30T04:02:52;23.75;;;19.23;;
27632;SDS011;15046;50.930;13.334;2022-07-30T04:05:19;22.17;;;19.38;;
27632;SDS011;15046;50.930;13.334;2022-07-30T04:07:48;21.08;;;18.77;;
27632;SDS011;15046;50.930;13.334;2022-07-30T04:10:14;19.58;;;16.90;;
27632;SDS011;15046;50.930;13.334;2022-07-30T04:12:41;23.05;;;19.48;;
27632;SDS011;15046;50.930;13.334;2022-07-30T04:15:07;26.35;;;20.90;;
27632;SDS011;15046;50.930;13.334;2022-07-30T04:17:50;25.10;;;19.83;;
27632;SDS011;15046;50.930;13.334;2022-07-30T04:20:23;26.63;;;21.42;;
27632;SDS011;15046;50.930;13.334;2022-07-30T04:22:56;22.70;;;19.17;;
27632;SDS011;15046;50.930;13.334;2022-07-30T04:25:23;24.92;;;21.13;;
27632;SDS011;15046;50.930;13.334;2022-07-30T04:27:49;23.42;;;20.90;;
27632;SDS011;15046;50.930;13.334;2022-07-30T04:30:15;23.70;;;19.65;;
27632;SDS011;15046;50.930;13.334;2022-07-30T04:32:41;24.58;;;20.65;;
27632;SDS011;15046;50.930;13.334;2022-07-30T04:35:08;23.48;;;20.48;;
27632;SDS011;15046;50.930;13.334;2022-07-30T04:37:34;24.55;;;19.63;;
27632;SDS011;15046;50.930;13.334;2022-07-30T04:40:00;20.75;;;18.63;;
27632;SDS011;15046;50.930;13.334;2022-07-30T04:42:26;25.20;;;20.88;;
27632;SDS011;15046;50.930;13.334;2022-07-30T04:44:53;25.17;;;21.48;;
27632;SDS011;15046;50.930;13.334;2022-07-30T04:47:21;24.70;;;22.05;;
27632;SDS011;15046;50.930;13.334;2022-07-30T04:49:48;24.00;;;20.38;;
27632;SDS011;15046;50.930;13.334;2022-07-30T04:52:16;24.63;;;21.85;;
27632;SDS011;15046;50.930;13.334;2022-07-30T04:54:48;27.02;;;21.20;;
27632;SDS011;15046;50.930;13.334;2022-07-30T04:57:18;22.90;;;20.33;;
27632;SDS011;15046;50.930;13.334;2022-07-30T04:59:45;24.90;;;21.58;;
27632;SDS011;15046;50.930;13.334;2022-07-30T05:02:11;22.30;;;19.90;;
27632;SDS011;15046;50.930;13.334;2022-07-30T05:04:38;23.98;;;20.42;;
27632;SDS011;15046;50.930;13.334;2022-07-30T05:07:05;19.58;;;17.42;;
27632;SDS011;15046;50.930;13.334;2022-07-30T05:09:32;22.30;;;19.23;;
27632;SDS011;15046;50.930;13.334;2022-07-30T05:11:58;20.73;;;18.17;;
27632;SDS011;15046;50.930;13.334;2022-07-30T05:14:25;22.83;;;20.38;;
27632;SDS011;15046;50.930;13.334;2022-07-30T05:16:51;24.23;;;19.42;;
27632;SDS011;15046;50.930;13.334;2022-07-30T05:19:18;25.67;;;22.08;;
27632;SDS011;15046;50.930;13.334;2022-07-30T05:21:45;22.30;;;19.05;;
27632;SDS011;15046;50.930;13.334;2022-07-30T05:24:11;27.65;;;19.42;;
27632;SDS011;15046;50.930;13.334;2022-07-30T05:26:36;26.27;;;21.08;;
27632;SDS011;15046;50.930;13.334;2022-07-30T05:29:02;26.20;;;19.40;;
27632;SDS011;15046;50.930;13.334;2022-07-30T05:31:28;24.67;;;22.10;;
27632;SDS011;15046;50.930;13.334;2022-07-30T05:33:54;21.55;;;19.05;;
27632;SDS011;15046;50.930;13.334;2022-07-30T05:36:20;18.95;;;16.92;;
27632;SDS011;15046;50.930;13.334;2022-07-30T05:38:46;21.02;;;18.80;;
27632;SDS011;15046;50.930;13.334;2022-07-30T05:41:13;27.13;;;20.63;;
27632;SDS011;15046;50.930;13.334;2022-07-30T05:43:39;25.75;;;23.02;;
27632;SDS011;15046;50.930;13.334;2022-07-30T05:46:05;24.80;;;22.17;;
27632;SDS011;15046;50.930;13.334;2022-07-30T05:48:31;24.42;;;20.77;;
27632;SDS011;15046;50.930;13.334;2022-07-30T05:51:00;23.63;;;20.42;;
27632;SDS011;15046;50.930;13.334;2022-07-30T05:53:26;23.60;;;21.10;;
27632;SDS011;15046;50.930;13.334;2022-07-30T05:55:52;26.63;;;22.42;;
27632;SDS011;15046;50.930;13.334;2022-07-30T05:58:18;26.83;;;22.40;;
27632;SDS011;15046;50.930;13.334;2022-07-30T06:00:44;24.33;;;21.20;;
27632;SDS011;15046;50.930;13.334;2022-07-30T06:03:10;23.08;;;20.63;;
27632;SDS011;15046;50.930;13.334;2022-07-30T06:05:36;25.15;;;22.25;;
27632;SDS011;15046;50.930;13.334;2022-07-30T06:08:01;30.35;;;23.00;;
27632;SDS011;15046;50.930;13.334;2022-07-30T06:10:27;27.02;;;22.13;;
27632;SDS011;15046;50.930;13.334;2022-07-30T06:12:53;23.27;;;19.60;;
27632;SDS011;15046;50.930;13.334;2022-07-30T06:15:19;27.42;;;23.23;;
27632;SDS011;15046;50.930;13.334;2022-07-30T06:17:46;27.70;;;21.92;;
27632;SDS011;15046;50.930;13.334;2022-07-30T06:20:13;30.77;;;24.25;;
27632;SDS011;15046;50.930;13.334;2022-07-30T06:22:41;25.13;;;21.50;;
27632;SDS011;15046;50.930;13.334;2022-07-30T06:25:07;26.20;;;22.88;;
27632;SDS011;15046;50.930;13.334;2022-07-30T06:27:33;23.15;;;20.85;;
27632;SDS011;15046;50.930;13.334;2022-07-30T06:30:00;25.23;;;22.45;;
27632;SDS011;15046;50.930;13.334;2022-07-30T06:32:28;30.52;;;24.95;;
27632;SDS011;15046;50.930;13.334;2022-07-30T06:34:54;26.23;;;22.35;;
27632;SDS011;15046;50.930;13.334;2022-07-30T06:37:19;23.92;;;21.52;;
27632;SDS011;15046;50.930;13.334;2022-07-30T06:39:45;24.98;;;22.33;;
27632;SDS011;15046;50.930;13.334;2022-07-30T06:42:11;26.27;;;20.65;;
27632;SDS011;15046;50.930;13.334;2022-07-30T06:44:37;22.80;;;20.40;;
27632;SDS011;15046;50.930;13.334;2022-07-30T06:47:03;23.45;;;20.23;;
27632;SDS011;15046;50.930;13.334;2022-07-30T06:49:32;25.23;;;21.83;;
27632;SDS011;15046;50.930;13.334;2022-07-30T06:54:24;27.17;;;21.27;;
27632;SDS011;15046;50.930;13.334;2022-07-30T06:56:50;23.35;;;20.85;;
27632;SDS011;15046;50.930;13.334;2022-07-30T06:59:16;25.35;;;22.15;;
27632;SDS011;15046;50.930;13.334;2022-07-30T07:01:42;27.65;;;22.83;;
27632;SDS011;15046;50.930;13.334;2022-07-30T07:04:08;28.60;;;25.50;;
27632;SDS011;15046;50.930;13.334;2022-07-30T07:06:34;30.98;;;25.23;;
27632;SDS011;15046;50.930;13.334;2022-07-30T07:09:00;27.17;;;23.40;;
27632;SDS011;15046;50.930;13.334;2022-07-30T07:11:26;33.13;;;27.05;;
27632;SDS011;15046;50.930;13.334;2022-07-30T07:13:51;34.10;;;27.85;;
27632;SDS011;15046;50.930;13.334;2022-07-30T07:16:17;29.50;;;26.40;;
27632;SDS011;15046;50.930;13.334;2022-07-30T07:18:50;26.98;;;24.13;;
27632;SDS011;15046;50.930;13.334;2022-07-30T07:21:16;28.33;;;24.20;;
27632;SDS011;15046;50.930;13.334;2022-07-30T07:23:42;26.80;;;20.40;;
27632;SDS011;15046;50.930;13.334;2022-07-30T07:26:09;29.88;;;25.77;;
27632;SDS011;15046;50.930;13.334;2022-07-30T07:28:35;32.92;;;26.98;;
27632;SDS011;15046;50.930;13.334;2022-07-30T07:31:02;28.75;;;22.95;;
27632;SDS011;15046;50.930;13.334;2022-07-30T07:33:28;27.30;;;22.05;;
27632;SDS011;15046;50.930;13.334;2022-07-30T07:35:54;30.08;;;24.27;;
27632;SDS011;15046;50.930;13.334;2022-07-30T07:38:19;54.15;;;27.15;;
27632;SDS011;15046;50.930;13.334;2022-07-30T07:40:46;28.27;;;23.05;;
27632;SDS011;15046;50.930;13.334;2022-07-30T07:43:13;41.88;;;26.95;;
27632;SDS011;15046;50.930;13.334;2022-07-30T07:45:41;34.55;;;23.88;;
27632;SDS011;15046;50.930;13.334;2022-07-30T07:53:18;36.72;;;29.55;;
27632;SDS011;15046;50.930;13.334;2022-07-30T07:55:44;32.65;;;28.05;;
27632;SDS011;15046;50.930;13.334;2022-07-30T07:58:10;33.20;;;27.45;;
27632;SDS011;15046;50.930;13.334;2022-07-30T08:00:38;40.85;;;30.75;;
27632;SDS011;15046;50.930;13.334;2022-07-30T08:03:04;30.30;;;25.63;;
27632;SDS011;15046;50.930;13.334;2022-07-30T08:05:30;36.88;;;28.83;;
27632;SDS011;15046;50.930;13.334;2022-07-30T08:07:57;42.78;;;30.40;;
27632;SDS011;15046;50.930;13.334;2022-07-30T08:10:23;41.90;;;31.40;;
27632;SDS011;15046;50.930;13.334;2022-07-30T08:12:49;33.63;;;27.23;;
27632;SDS011;15046;50.930;13.334;2022-07-30T08:15:15;40.38;;;30.45;;
27632;SDS011;15046;50.930;13.334;2022-07-30T08:17:42;33.47;;;24.60;;
27632;SDS011;15046;50.930;13.334;2022-07-30T08:20:08;38.75;;;30.60;;
27632;SDS011;15046;50.930;13.334;2022-07-30T08:22:35;44.15;;;31.90;;
27632;SDS011;15046;50.930;13.334;2022-07-30T08:25:01;46.15;;;35.60;;
27632;SDS011;15046;50.930;13.334;2022-07-30T08:27:27;33.72;;;26.23;;
27632;SDS011;15046;50.930;13.334;2022-07-30T08:29:54;31.73;;;27.77;;
27632;SDS011;15046;50.930;13.334;2022-07-30T08:32:20;35.90;;;29.75;;
27632;SDS011;15046;50.930;13.334;2022-07-30T08:34:45;31.15;;;24.60;;
27632;SDS011;15046;50.930;13.334;2022-07-30T08:37:11;28.58;;;22.58;;
27632;SDS011;15046;50.930;13.334;2022-07-30T08:39:37;36.78;;;27.77;;
27632;SDS011;15046;50.930;13.334;2022-07-30T08:42:03;36.38;;;27.05;;
27632;SDS011;15046;50.930;13.334;2022-07-30T08:44:30;30.38;;;26.60;;
27632;SDS011;15046;50.930;13.334;2022-07-30T08:46:57;29.45;;;25.23;;
27632;SDS011;15046;50.930;13.334;2022-07-30T08:49:25;30.98;;;22.38;;
27632;SDS011;15046;50.930;13.334;2022-07-30T08:51:52;29.90;;;23.52;;
27632;SDS011;15046;50.930;13.334;2022-07-30T08:54:18;24.60;;;21.73;;
27632;SDS011;15046;50.930;13.334;2022-07-30T08:56:44;31.13;;;24.80;;
27632;SDS011;15046;50.930;13.334;2022-07-30T08:59:13;25.90;;;22.90;;
27632;SDS011;15046;50.930;13.334;2022-07-30T09:01:40;30.02;;;23.65;;
27632;SDS011;15046;50.930;13.334;2022-07-30T09:04:06;31.23;;;26.95;;
27632;SDS011;15046;50.930;13.334;2022-07-30T09:06:32;31.92;;;28.13;;
27632;SDS011;15046;50.930;13.334;2022-07-30T09:08:58;29.08;;;25.90;;
27632;SDS011;15046;50.930;13.334;2022-07-30T09:11:24;37.80;;;31.55;;
27632;SDS011;15046;50.930;13.334;2022-07-30T09:13:50;33.40;;;27.90;;
27632;SDS011;15046;50.930;13.334;2022-07-30T09:16:19;40.50;;;30.50;;
27632;SDS011;15046;50.930;13.334;2022-07-30T09:18:47;41.28;;;32.10;;
27632;SDS011;15046;50.930;13.334;2022-07-30T09:21:24;38.22;;;31.98;;
27632;SDS011;15046;50.930;13.334;2022-07-30T09:26:23;33.33;;;24.83;;
27632;SDS011;15046;50.930;13.334;2022-07-30T09:28:50;43.50;;;29.85;;
27632;SDS011;15046;50.930;13.334;2022-07-30T09:31:16;31.85;;;24.83;;
27632;SDS011;15046;50.930;13.334;2022-07-30T09:33:43;33.08;;;25.23;;
27632;SDS011;15046;50.930;13.334;2022-07-30T09:36:11;31.30;;;20.70;;
27632;SDS011;15046;50.930;13.334;2022-07-30T09:38:45;27.77;;;21.77;;
27632;SDS011;15046;50.930;13.334;2022-07-30T09:41:15;26.00;;;18.17;;
27632;SDS011;15046;50.930;13.334;2022-07-30T09:43:46;24.52;;;17.63;;
27632;SDS011;15046;50.930;13.334;2022-07-30T09:46:16;22.90;;;14.55;;
27632;SDS011;15046;50.930;13.334;2022-07-30T09:48:42;21.08;;;17.00;;
27632;SDS011;15046;50.930;13.334;2022-07-30T09:51:11;32.22;;;22.05;;
27632;SDS011;15046;50.930;13.334;2022-07-30T09:53:51;24.27;;;20.20;;
27632;SDS011;15046;50.930;13.334;2022-07-30T09:56:24;16.65;;;13.68;;
27632;SDS011;15046;50.930;13.334;2022-07-30T09:58:51;19.63;;;16.85;;
27632;SDS011;15046;50.930;13.334;2022-07-30T10:01:17;23.38;;;15.57;;
27632;SDS011;15046;50.930;13.334;2022-07-30T10:03:43;24.65;;;20.63;;
27632;SDS011;15046;50.930;13.334;2022-07-30T10:06:09;18.80;;;16.83;;
27632;SDS011;15046;50.930;13.334;2022-07-30T10:08:45;20.70;;;16.58;;
27632;SDS011;15046;50.930;13.334;2022-07-30T10:11:17;21.60;;;16.90;;
27632;SDS011;15046;50.930;13.334;2022-07-30T10:13:46;20.58;;;18.38;;
27632;SDS011;15046;50.930;13.334;2022-07-30T10:16:14;19.25;;;16.67;;
27632;SDS011;15046;50.930;13.334;2022-07-30T10:18:41;24.73;;;20.92;;
27632;SDS011;15046;50.930;13.334;2022-07-30T10:21:07;20.35;;;18.02;;
27632;SDS011;15046;50.930;13.334;2022-07-30T10:23:34;24.45;;;19.65;;
27632;SDS011;15046;50.930;13.334;2022-07-30T10:26:00;22.42;;;18.85;;
27632;SDS011;15046;50.930;13.334;2022-07-30T10:28:27;23.83;;;19.83;;
27632;SDS011;15046;50.930;13.334;2022-07-30T10:30:55;23.85;;;21.17;;
27632;SDS011;15046;50.930;13.334;2022-07-30T10:33:27;28.67;;;25.10;;
27632;SDS011;15046;50.930;13.334;2022-07-30T10:35:54;27.92;;;23.35;;
27632;SDS011;15046;50.930;13.334;2022-07-30T10:38:23;22.15;;;18.85;;
27632;SDS011;15046;50.930;13.334;2022-07-30T10:40:55;25.73;;;23.02;;
27632;SDS011;15046;50.930;13.334;2022-07-30T10:49:11;33.45;;;28.40;;
27632;SDS011;15046;50.930;13.334;2022-07-30T10:51:49;37.70;;;32.58;;
27632;SDS011;15046;50.930;13.334;2022-07-30T10:57:12;30.75;;;27.02;;
27632;SDS011;15046;50.930;13.334;2022-07-30T11:07:43;27.77;;;24.80;;
27632;SDS011;15046;50.930;13.334;2022-07-30T11:13:03;29.60;;;26.40;;
27632;SDS011;15046;50.930;13.334;2022-07-30T11:15:52;29.63;;;24.48;;
27632;SDS011;15046;50.930;13.334;2022-07-30T11:18:23;31.08;;;26.52;;
27632;SDS011;15046;50.930;13.334;2022-07-30T11:23:42;27.08;;;24.13;;
27632;SDS011;15046;50.930;13.334;2022-07-30T11:26:11;27.58;;;24.73;;
27632;SDS011;15046;50.930;13.334;2022-07-30T11:31:54;29.88;;;24.23;;
27632;SDS011;15046;50.930;13.334;2022-07-30T11:37:08;37.42;;;32.25;;
27632;SDS011;15046;50.930;13.334;2022-07-30T11:42:26;30.38;;;25.13;;
27632;SDS011;15046;50.930;13.334;2022-07-30T11:47:45;28.13;;;24.70;;
27632;SDS011;15046;50.930;13.334;2022-07-30T11:50:17;28.10;;;25.15;;
27632;SDS011;15046;50.930;13.334;2022-07-30T11:58:05;24.55;;;21.95;;
27632;SDS011;15046;50.930;13.334;2022-07-30T12:00:34;27.77;;;24.85;;
27632;SDS011;15046;50.930;13.334;2022-07-30T12:03:13;28.60;;;25.45;;
27632;SDS011;15046;50.930;13.334;2022-07-30T12:05:40;28.10;;;25.13;;
27632;SDS011;15046;50.930;13.334;2022-07-30T12:08:07;24.73;;;22.05;;
27632;SDS011;15046;50.930;13.334;2022-07-30T12:10:35;27.23;;;24.52;;
27632;SDS011;15046;50.930;13.334;2022-07-30T12:13:13;28.63;;;24.80;;
27632;SDS011;15046;50.930;13.334;2022-07-30T12:15:41;25.65;;;22.02;;
27632;SDS011;15046;50.930;13.334;2022-07-30T12:18:09;27.75;;;24.83;;
27632;SDS011;15046;50.930;13.334;2022-07-30T12:20:37;22.55;;;20.15;;
27632;SDS011;15046;50.930;13.334;2022-07-30T12:23:11;25.02;;;22.52;;
27632;SDS011;15046;50.930;13.334;2022-07-30T12:25:38;24.95;;;22.38;;
27632;SDS011;15046;50.930;13.334;2022-07-30T12:28:05;23.25;;;20.77;;
27632;SDS011;15046;50.930;13.334;2022-07-30T12:30:32;23.10;;;20.63;;
27632;SDS011;15046;50.930;13.334;2022-07-30T12:33:01;25.10;;;20.53;;
27632;SDS011;15046;50.930;13.334;2022-07-30T12:35:43;22.95;;;20.60;;
27632;SDS011;15046;50.930;13.334;2022-07-30T12:38:11;25.58;;;21.48;;
27632;SDS011;15046;50.930;13.334;2022-07-30T12:46:08;22.92;;;19.77;;
27632;SDS011;15046;50.930;13.334;2022-07-30T12:48:34;19.75;;;17.65;;
27632;SDS011;15046;50.930;13.334;2022-07-30T12:51:07;21.05;;;18.85;;
27632;SDS011;15046;50.930;13.334;2022-07-30T12:53:35;17.52;;;14.98;;
27632;SDS011;15046;50.930;13.334;2022-07-30T12:56:11;20.60;;;16.25;;
27632;SDS011;15046;50.930;13.334;2022-07-30T12:58:42;18.98;;;15.80;;
27632;SDS011;15046;50.930;13.334;2022-07-30T13:01:09;20.50;;;15.95;;
27632;SDS011;15046;50.930;13.334;2022-07-30T13:03:36;15.27;;;12.93;;
27632;SDS011;15046;50.930;13.334;2022-07-30T13:06:13;14.18;;;12.45;;
27632;SDS011;15046;50.930;13.334;2022-07-30T13:11:12;13.75;;;12.23;;
27632;SDS011;15046;50.930;13.334;2022-07-30T13:13:38;17.77;;;15.13;;
27632;SDS011;15046;50.930;13.334;2022-07-30T13:16:05;17.25;;;12.57;;
27632;SDS011;15046;50.930;13.334;2022-07-30T13:18:33;15.13;;;13.45;;
27632;SDS011;15046;50.930;13.334;2022-07-30T13:21:01;16.55;;;12.90;;
27632;SDS011;15046;50.930;13.334;2022-07-30T13:23:28;15.68;;;13.13;;
27632;SDS011;15046;50.930;13.334;2022-07-30T13:25:55;14.27;;;12.30;;
27632;SDS011;15046;50.930;13.334;2022-07-30T13:28:21;15.77;;;13.25;;
27632;SDS011;15046;50.930;13.334;2022-07-30T13:30:48;16.45;;;13.90;;
27632;SDS011;15046;50.930;13.334;2022-07-30T13:33:14;18.58;;;13.93;;
27632;SDS011;15046;50.930;13.334;2022-07-30T13:35:43;16.38;;;12.77;;
27632;SDS011;15046;50.930;13.334;2022-07-30T13:38:14;14.02;;;11.73;;
27632;SDS011;15046;50.930;13.334;2022-07-30T13:40:42;14.90;;;12.57;;
27632;SDS011;15046;50.930;13.334;2022-07-30T13:43:08;16.38;;;12.07;;
27632;SDS011;15046;50.930;13.334;2022-07-30T13:45:34;13.95;;;10.95;;
27632;SDS011;15046;50.930;13.334;2022-07-30T13:48:01;13.70;;;11.05;;
27632;SDS011;15046;50.930;13.334;2022-07-30T13:50:28;17.35;;;11.38;;
27632;SDS011;15046;50.930;13.334;2022-07-30T13:52:54;15.90;;;11.85;;
27632;SDS011;15046;50.930;13.334;2022-07-30T13:55:25;14.48;;;11.23;;
27632;SDS011;15046;50.930;13.334;2022-07-30T13:57:51;15.25;;;12.15;;
27632;SDS011;15046;50.930;13.334;2022-07-30T14:00:17;17.35;;;11.93;;
27632;SDS011;15046;50.930;13.334;2022-07-30T14:02:43;14.32;;;10.57;;
27632;SDS011;15046;50.930;13.334;2022-07-30T14:05:09;13.40;;;10.95;;
27632;SDS011;15046;50.930;13.334;2022-07-30T14:07:35;12.63;;;10.80;;
27632;SDS011;15046;50.930;13.334;2022-07-30T14:10:03;14.80;;;11.15;;
27632;SDS011;15046;50.930;13.334;2022-07-30T14:12:30;17.87;;;11.33;;
27632;SDS011;15046;50.930;13.334;2022-07-30T14:14:57;14.32;;;11.50;;
27632;SDS011;15046;50.930;13.334;2022-07-30T14:17:23;16.20;;;10.80;;
27632;SDS011;15046;50.930;13.334;2022-07-30T14:19:49;13.70;;;9.05;;
27632;SDS011;15046;50.930;13.334;2022-07-30T14:22:18;12.50;;;10.35;;
27632;SDS011;15046;50.930;13.334;2022-07-30T14:24:45;12.20;;;9.65;;
27632;SDS011;15046;50.930;13.334;2022-07-30T14:27:11;16.65;;;11.00;;
27632;SDS011;15046;50.930;13.334;2022-07-30T14:29:37;13.00;;;9.77;;
27632;SDS011;15046;50.930;13.334;2022-07-30T14:32:06;10.67;;;9.13;;
27632;SDS011;15046;50.930;13.334;2022-07-30T14:34:31;16.95;;;10.50;;
27632;SDS011;15046;50.930;13.334;2022-07-30T14:36:57;13.30;;;10.60;;
27632;SDS011;15046;50.930;13.334;2022-07-30T14:39:23;16.02;;;11.32;;
27632;SDS011;15046;50.930;13.334;2022-07-30T14:41:49;13.98;;;10.40;;
27632;SDS011;15046;50.930;13.334;2022-07-30T14:44:16;14.57;;;10.07;;
27632;SDS011;15046;50.930;13.334;2022-07-30T14:46:41;13.13;;;10.52;;
27632;SDS011;15046;50.930;13.334;2022-07-30T14:49:08;17.02;;;10.65;;
27632;SDS011;15046;50.930;13.334;2022-07-30T14:51:34;12.98;;;10.30;;
27632;SDS011;15046;50.930;13.334;2022-07-30T14:54:01;16.00;;;11.32;;
27632;SDS011;15046;50.930;13.334;2022-07-30T14:56:32;17.08;;;12.80;;
27632;SDS011;15046;50.930;13.334;2022-07-30T14:58:58;15.15;;;12.10;;
27632;SDS011;15046;50.930;13.334;2022-07-30T15:01:25;15.18;;;12.15;;
27632;SDS011;15046;50.930;13.334;2022-07-30T15:03:53;13.82;;;12.30;;
27632;SDS011;15046;50.930;13.334;2022-07-30T15:06:19;14.23;;;10.68;;
27632;SDS011;15046;50.930;13.334;2022-07-30T15:08:45;16.02;;;11.93;;
27632;SDS011;15046;50.930;13.334;2022-07-30T15:11:11;16.02;;;12.02;;
27632;SDS011;15046;50.930;13.334;2022-07-30T15:13:37;16.05;;;12.13;;
27632;SDS011;15046;50.930;13.334;2022-07-30T15:16:03;15.15;;;11.70;;
27632;SDS011;15046;50.930;13.334;2022-07-30T15:18:30;14.02;;;12.02;;
27632;SDS011;15046;50.930;13.334;2022-07-30T15:20:58;14.73;;;12.82;;